sensor_id;sensor_type;location;lat;lon;timestamp;P1;durP1;ratioP1;P2;durP2;ratioP2
68010;SDS011;54794;48.348;7.878;2022-12-18T00:01:27;9.70;;;3.60;;
68010;SDS011;54794;48.348;7.878;2022-12-18T00:04:00;8.48;;;3.33;;
68010;SDS011;54794;48.348;7.878;2022-12-18T00:06:32;8.73;;;3.83;;
68010;SDS011;54794;48.348;7.878;2022-12-18T00:09:01;5.63;;;2.85;;
68010;SDS011;54794;48.348;7.878;2022-12-18T00:11:30;7.70;;;3.65;;
68010;SDS011;54794;48.348;7.878;2022-12-18T00:13:59;8.88;;;3.75;;
68010;SDS011;54794;48.348;7.878;2022-12-18T00:16:27;8.32;;;3.55;;
68010;SDS011;54794;48.348;7.878;2022-12-18T00:18:57;8.63;;;3.47;;
68010;SDS011;54794;48.348;7.878;2022-12-18T00:21:26;10.23;;;3.55;;
68010;SDS011;54794;48.348;7.878;2022-12-18T00:23:55;7.80;;;3.63;;
68010;SDS011;54794;48.348;7.878;2022-12-18T00:26:32;7.15;;;2.92;;
68010;SDS011;54794;48.348;7.878;2022-12-18T00:29:12;8.70;;;3.58;;
68010;SDS011;54794;48.348;7.878;2022-12-18T00:31:40;9.30;;;3.47;;
68010;SDS011;54794;48.348;7.878;2022-12-18T00:34:10;6.82;;;3.40;;
68010;SDS011;54794;48.348;7.878;2022-12-18T00:36:39;9.35;;;3.72;;
68010;SDS011;54794;48.348;7.878;2022-12-18T00:39:09;7.05;;;3.28;;
68010;SDS011;54794;48.348;7.878;2022-12-18T00:41:37;8.25;;;3.78;;
68010;SDS011;54794;48.348;7.878;2022-12-18T00:44:23;8.38;;;3.88;;
68010;SDS011;54794;48.348;7.878;2022-12-18T00:46:50;8.27;;;3.85;;
68010;SDS011;54794;48.348;7.878;2022-12-18T00:49:18;8.98;;;3.75;;
68010;SDS011;54794;48.348;7.878;2022-12-18T00:51:47;8.60;;;3.72;;
68010;SDS011;54794;48.348;7.878;2022-12-18T00:54:15;9.02;;;3.72;;
68010;SDS011;54794;48.348;7.878;2022-12-18T00:56:43;7.22;;;3.40;;
68010;SDS011;54794;48.348;7.878;2022-12-18T00:59:15;7.63;;;3.72;;
68010;SDS011;54794;48.348;7.878;2022-12-18T01:01:43;8.52;;;3.63;;
68010;SDS011;54794;48.348;7.878;2022-12-18T01:04:11;10.05;;;4.57;;
68010;SDS011;54794;48.348;7.878;2022-12-18T01:06:38;9.75;;;3.95;;
68010;SDS011;54794;48.348;7.878;2022-12-18T01:09:06;7.43;;;3.67;;
68010;SDS011;54794;48.348;7.878;2022-12-18T01:11:33;7.97;;;3.38;;
68010;SDS011;54794;48.348;7.878;2022-12-18T01:16:28;6.82;;;3.10;;
68010;SDS011;54794;48.348;7.878;2022-12-18T01:18:55;8.40;;;3.63;;
68010;SDS011;54794;48.348;7.878;2022-12-18T01:23:51;8.77;;;3.80;;
68010;SDS011;54794;48.348;7.878;2022-12-18T01:26:23;7.57;;;3.17;;
68010;SDS011;54794;48.348;7.878;2022-12-18T01:28:53;9.10;;;3.30;;
68010;SDS011;54794;48.348;7.878;2022-12-18T01:33:57;9.10;;;3.88;;
68010;SDS011;54794;48.348;7.878;2022-12-18T01:36:29;8.73;;;3.97;;
68010;SDS011;54794;48.348;7.878;2022-12-18T01:38:59;7.38;;;3.22;;
68010;SDS011;54794;48.348;7.878;2022-12-18T01:41:33;6.82;;;3.33;;
68010;SDS011;54794;48.348;7.878;2022-12-18T01:50:20;7.70;;;3.65;;
68010;SDS011;54794;48.348;7.878;2022-12-18T01:52:54;9.77;;;3.80;;
68010;SDS011;54794;48.348;7.878;2022-12-18T01:55:25;9.02;;;4.25;;
68010;SDS011;54794;48.348;7.878;2022-12-18T01:57:56;7.22;;;3.47;;
68010;SDS011;54794;48.348;7.878;2022-12-18T02:00:26;8.07;;;3.28;;
68010;SDS011;54794;48.348;7.878;2022-12-18T02:02:54;10.23;;;3.72;;
68010;SDS011;54794;48.348;7.878;2022-12-18T02:14:17;7.43;;;3.63;;
68010;SDS011;54794;48.348;7.878;2022-12-18T02:17:05;8.00;;;3.30;;
68010;SDS011;54794;48.348;7.878;2022-12-18T02:23:00;7.68;;;3.50;;
68010;SDS011;54794;48.348;7.878;2022-12-18T02:28:23;10.18;;;3.65;;
68010;SDS011;54794;48.348;7.878;2022-12-18T02:30:56;8.02;;;3.50;;
68010;SDS011;54794;48.348;7.878;2022-12-18T02:33:29;8.80;;;3.88;;
68010;SDS011;54794;48.348;7.878;2022-12-18T02:35:59;7.72;;;3.35;;
68010;SDS011;54794;48.348;7.878;2022-12-18T02:38:28;8.55;;;3.65;;
68010;SDS011;54794;48.348;7.878;2022-12-18T02:40:57;10.23;;;3.50;;
68010;SDS011;54794;48.348;7.878;2022-12-18T02:43:26;9.57;;;3.70;;
68010;SDS011;54794;48.348;7.878;2022-12-18T02:45:54;9.35;;;3.90;;
68010;SDS011;54794;48.348;7.878;2022-12-18T02:48:27;8.68;;;3.65;;
68010;SDS011;54794;48.348;7.878;2022-12-18T02:54:18;10.13;;;3.90;;
68010;SDS011;54794;48.348;7.878;2022-12-18T02:57:01;8.32;;;3.50;;
68010;SDS011;54794;48.348;7.878;2022-12-18T02:59:54;7.47;;;3.60;;
68010;SDS011;54794;48.348;7.878;2022-12-18T03:02:41;7.55;;;3.58;;
68010;SDS011;54794;48.348;7.878;2022-12-18T03:05:19;11.07;;;4.30;;
68010;SDS011;54794;48.348;7.878;2022-12-18T03:08:05;7.00;;;3.47;;
68010;SDS011;54794;48.348;7.878;2022-12-18T03:10:41;7.82;;;3.50;;
68010;SDS011;54794;48.348;7.878;2022-12-18T03:13:45;8.10;;;3.97;;
68010;SDS011;54794;48.348;7.878;2022-12-18T03:16:23;8.25;;;3.88;;
68010;SDS011;54794;48.348;7.878;2022-12-18T03:18:55;9.82;;;4.35;;
68010;SDS011;54794;48.348;7.878;2022-12-18T03:21:35;10.18;;;4.07;;
68010;SDS011;54794;48.348;7.878;2022-12-18T03:24:09;8.32;;;3.70;;
68010;SDS011;54794;48.348;7.878;2022-12-18T03:26:41;7.97;;;3.75;;
68010;SDS011;54794;48.348;7.878;2022-12-18T03:29:17;10.80;;;4.40;;
68010;SDS011;54794;48.348;7.878;2022-12-18T03:32:04;11.38;;;3.97;;
68010;SDS011;54794;48.348;7.878;2022-12-18T03:34:38;11.50;;;4.22;;
68010;SDS011;54794;48.348;7.878;2022-12-18T03:37:10;7.25;;;3.45;;
68010;SDS011;54794;48.348;7.878;2022-12-18T03:39:37;10.15;;;4.13;;
68010;SDS011;54794;48.348;7.878;2022-12-18T03:42:06;9.02;;;3.78;;
68010;SDS011;54794;48.348;7.878;2022-12-18T03:47:40;10.45;;;4.40;;
68010;SDS011;54794;48.348;7.878;2022-12-18T03:50:32;8.55;;;4.35;;
68010;SDS011;54794;48.348;7.878;2022-12-18T03:56:17;9.23;;;4.07;;
68010;SDS011;54794;48.348;7.878;2022-12-18T03:58:48;9.68;;;4.15;;
68010;SDS011;54794;48.348;7.878;2022-12-18T04:01:19;9.35;;;3.95;;
68010;SDS011;54794;48.348;7.878;2022-12-18T04:03:56;8.98;;;3.95;;
68010;SDS011;54794;48.348;7.878;2022-12-18T04:06:26;9.05;;;4.18;;
68010;SDS011;54794;48.348;7.878;2022-12-18T04:08:56;8.52;;;3.97;;
68010;SDS011;54794;48.348;7.878;2022-12-18T04:11:24;8.63;;;3.78;;
68010;SDS011;54794;48.348;7.878;2022-12-18T04:16:24;7.25;;;3.47;;
68010;SDS011;54794;48.348;7.878;2022-12-18T04:18:54;8.52;;;3.60;;
68010;SDS011;54794;48.348;7.878;2022-12-18T04:21:21;8.50;;;3.70;;
68010;SDS011;54794;48.348;7.878;2022-12-18T04:23:49;8.30;;;3.85;;
68010;SDS011;54794;48.348;7.878;2022-12-18T04:26:16;8.38;;;3.75;;
68010;SDS011;54794;48.348;7.878;2022-12-18T04:28:43;8.18;;;3.70;;
68010;SDS011;54794;48.348;7.878;2022-12-18T04:31:09;7.50;;;3.78;;
68010;SDS011;54794;48.348;7.878;2022-12-18T04:33:36;9.00;;;3.58;;
68010;SDS011;54794;48.348;7.878;2022-12-18T04:38:31;8.82;;;3.17;;
68010;SDS011;54794;48.348;7.878;2022-12-18T04:40:58;8.30;;;3.83;;
68010;SDS011;54794;48.348;7.878;2022-12-18T04:43:25;10.43;;;4.25;;
68010;SDS011;54794;48.348;7.878;2022-12-18T04:45:52;10.80;;;3.92;;
68010;SDS011;54794;48.348;7.878;2022-12-18T04:48:20;10.95;;;4.20;;
68010;SDS011;54794;48.348;7.878;2022-12-18T04:50:47;9.85;;;3.85;;
68010;SDS011;54794;48.348;7.878;2022-12-18T04:53:14;8.65;;;3.97;;
68010;SDS011;54794;48.348;7.878;2022-12-18T04:55:41;10.13;;;4.05;;
68010;SDS011;54794;48.348;7.878;2022-12-18T04:58:07;8.13;;;3.33;;
68010;SDS011;54794;48.348;7.878;2022-12-18T05:00:34;10.35;;;4.25;;
68010;SDS011;54794;48.348;7.878;2022-12-18T05:03:02;8.32;;;3.58;;
68010;SDS011;54794;48.348;7.878;2022-12-18T05:05:29;9.98;;;3.30;;
68010;SDS011;54794;48.348;7.878;2022-12-18T05:07:56;9.55;;;4.15;;
68010;SDS011;54794;48.348;7.878;2022-12-18T05:10:23;9.10;;;3.42;;
68010;SDS011;54794;48.348;7.878;2022-12-18T05:12:49;8.38;;;3.88;;
68010;SDS011;54794;48.348;7.878;2022-12-18T05:15:27;7.60;;;3.60;;
68010;SDS011;54794;48.348;7.878;2022-12-18T05:17:58;7.97;;;3.72;;
68010;SDS011;54794;48.348;7.878;2022-12-18T05:20:26;6.95;;;3.35;;
68010;SDS011;54794;48.348;7.878;2022-12-18T05:22:54;7.60;;;3.42;;
68010;SDS011;54794;48.348;7.878;2022-12-18T05:25:22;7.57;;;3.42;;
68010;SDS011;54794;48.348;7.878;2022-12-18T05:27:49;10.82;;;4.60;;
68010;SDS011;54794;48.348;7.878;2022-12-18T05:30:16;7.65;;;3.88;;
68010;SDS011;54794;48.348;7.878;2022-12-18T05:32:43;7.35;;;3.35;;
68010;SDS011;54794;48.348;7.878;2022-12-18T05:35:11;9.73;;;3.97;;
68010;SDS011;54794;48.348;7.878;2022-12-18T05:37:39;11.13;;;4.22;;
68010;SDS011;54794;48.348;7.878;2022-12-18T05:40:09;7.20;;;3.63;;
68010;SDS011;54794;48.348;7.878;2022-12-18T05:42:37;11.00;;;3.72;;
68010;SDS011;54794;48.348;7.878;2022-12-18T05:45:04;9.80;;;4.05;;
68010;SDS011;54794;48.348;7.878;2022-12-18T05:47:32;10.07;;;3.55;;
68010;SDS011;54794;48.348;7.878;2022-12-18T05:49:59;7.90;;;3.92;;
68010;SDS011;54794;48.348;7.878;2022-12-18T05:52:26;9.30;;;3.88;;
68010;SDS011;54794;48.348;7.878;2022-12-18T05:54:52;7.85;;;3.47;;
68010;SDS011;54794;48.348;7.878;2022-12-18T05:57:19;8.10;;;3.47;;
68010;SDS011;54794;48.348;7.878;2022-12-18T05:59:46;9.77;;;3.88;;
68010;SDS011;54794;48.348;7.878;2022-12-18T06:02:13;8.02;;;3.80;;
68010;SDS011;54794;48.348;7.878;2022-12-18T06:04:40;9.18;;;3.63;;
68010;SDS011;54794;48.348;7.878;2022-12-18T06:07:07;10.45;;;3.95;;
68010;SDS011;54794;48.348;7.878;2022-12-18T06:09:34;10.05;;;4.13;;
68010;SDS011;54794;48.348;7.878;2022-12-18T06:12:01;6.50;;;3.25;;
68010;SDS011;54794;48.348;7.878;2022-12-18T06:14:27;8.13;;;3.53;;
68010;SDS011;54794;48.348;7.878;2022-12-18T06:16:54;7.53;;;3.47;;
68010;SDS011;54794;48.348;7.878;2022-12-18T06:19:21;6.50;;;2.92;;
68010;SDS011;54794;48.348;7.878;2022-12-18T06:21:48;8.40;;;3.45;;
68010;SDS011;54794;48.348;7.878;2022-12-18T06:24:15;7.25;;;3.00;;
68010;SDS011;54794;48.348;7.878;2022-12-18T06:26:42;8.27;;;2.95;;
68010;SDS011;54794;48.348;7.878;2022-12-18T06:29:09;3.85;;;2.05;;
68010;SDS011;54794;48.348;7.878;2022-12-18T06:31:36;7.45;;;2.97;;
68010;SDS011;54794;48.348;7.878;2022-12-18T06:34:03;6.40;;;2.83;;
68010;SDS011;54794;48.348;7.878;2022-12-18T06:36:31;7.13;;;3.10;;
68010;SDS011;54794;48.348;7.878;2022-12-18T06:38:58;7.35;;;3.17;;
68010;SDS011;54794;48.348;7.878;2022-12-18T06:41:25;9.60;;;4.00;;
68010;SDS011;54794;48.348;7.878;2022-12-18T06:43:53;12.18;;;5.60;;
68010;SDS011;54794;48.348;7.878;2022-12-18T06:46:25;8.70;;;3.63;;
68010;SDS011;54794;48.348;7.878;2022-12-18T06:48:52;6.95;;;3.60;;
68010;SDS011;54794;48.348;7.878;2022-12-18T06:51:19;11.80;;;6.88;;
68010;SDS011;54794;48.348;7.878;2022-12-18T06:53:48;10.25;;;5.57;;
68010;SDS011;54794;48.348;7.878;2022-12-18T06:56:16;9.82;;;4.90;;
68010;SDS011;54794;48.348;7.878;2022-12-18T06:58:43;10.68;;;5.07;;
68010;SDS011;54794;48.348;7.878;2022-12-18T07:01:11;11.18;;;5.45;;
68010;SDS011;54794;48.348;7.878;2022-12-18T07:03:39;9.20;;;4.40;;
68010;SDS011;54794;48.348;7.878;2022-12-18T07:06:14;8.52;;;4.10;;
68010;SDS011;54794;48.348;7.878;2022-12-18T07:08:44;7.53;;;3.80;;
68010;SDS011;54794;48.348;7.878;2022-12-18T07:11:12;9.93;;;3.95;;
68010;SDS011;54794;48.348;7.878;2022-12-18T07:13:40;7.88;;;3.50;;
68010;SDS011;54794;48.348;7.878;2022-12-18T07:16:09;8.63;;;3.92;;
68010;SDS011;54794;48.348;7.878;2022-12-18T07:18:49;7.75;;;3.60;;
68010;SDS011;54794;48.348;7.878;2022-12-18T07:21:17;7.80;;;4.03;;
68010;SDS011;54794;48.348;7.878;2022-12-18T07:23:46;9.40;;;4.18;;
68010;SDS011;54794;48.348;7.878;2022-12-18T07:26:15;9.43;;;3.97;;
68010;SDS011;54794;48.348;7.878;2022-12-18T07:28:45;8.93;;;3.53;;
68010;SDS011;54794;48.348;7.878;2022-12-18T07:33:42;6.88;;;3.38;;
68010;SDS011;54794;48.348;7.878;2022-12-18T07:36:11;7.70;;;3.38;;
68010;SDS011;54794;48.348;7.878;2022-12-18T07:38:39;9.20;;;3.92;;
68010;SDS011;54794;48.348;7.878;2022-12-18T07:43:38;7.30;;;3.50;;
68010;SDS011;54794;48.348;7.878;2022-12-18T07:46:07;7.80;;;3.67;;
68010;SDS011;54794;48.348;7.878;2022-12-18T07:48:38;6.97;;;3.35;;
68010;SDS011;54794;48.348;7.878;2022-12-18T07:51:05;7.25;;;3.45;;
68010;SDS011;54794;48.348;7.878;2022-12-18T07:53:33;7.82;;;3.97;;
68010;SDS011;54794;48.348;7.878;2022-12-18T07:56:03;7.57;;;3.83;;
68010;SDS011;54794;48.348;7.878;2022-12-18T07:58:54;7.68;;;3.78;;
68010;SDS011;54794;48.348;7.878;2022-12-18T08:03:49;7.60;;;3.15;;
68010;SDS011;54794;48.348;7.878;2022-12-18T08:06:17;7.47;;;3.63;;
68010;SDS011;54794;48.348;7.878;2022-12-18T08:08:50;8.57;;;4.22;;
68010;SDS011;54794;48.348;7.878;2022-12-18T08:11:21;11.57;;;5.10;;
68010;SDS011;54794;48.348;7.878;2022-12-18T08:13:51;9.20;;;3.70;;
68010;SDS011;54794;48.348;7.878;2022-12-18T08:16:18;8.82;;;4.00;;
68010;SDS011;54794;48.348;7.878;2022-12-18T08:18:47;9.25;;;4.13;;
68010;SDS011;54794;48.348;7.878;2022-12-18T08:21:17;10.30;;;4.07;;
68010;SDS011;54794;48.348;7.878;2022-12-18T08:23:49;7.93;;;3.55;;
68010;SDS011;54794;48.348;7.878;2022-12-18T08:26:18;9.07;;;3.70;;
68010;SDS011;54794;48.348;7.878;2022-12-18T08:28:47;8.43;;;4.18;;
68010;SDS011;54794;48.348;7.878;2022-12-18T08:31:15;8.25;;;4.25;;
68010;SDS011;54794;48.348;7.878;2022-12-18T08:33:44;10.90;;;4.82;;
68010;SDS011;54794;48.348;7.878;2022-12-18T08:36:12;10.07;;;4.60;;
68010;SDS011;54794;48.348;7.878;2022-12-18T08:38:38;11.38;;;5.45;;
68010;SDS011;54794;48.348;7.878;2022-12-18T08:41:11;10.27;;;4.82;;
68010;SDS011;54794;48.348;7.878;2022-12-18T08:43:40;8.23;;;4.13;;
68010;SDS011;54794;48.348;7.878;2022-12-18T08:46:26;7.15;;;3.42;;
68010;SDS011;54794;48.348;7.878;2022-12-18T08:49:00;9.35;;;4.47;;
68010;SDS011;54794;48.348;7.878;2022-12-18T08:51:28;9.68;;;4.80;;
68010;SDS011;54794;48.348;7.878;2022-12-18T08:53:56;11.20;;;4.50;;
68010;SDS011;54794;48.348;7.878;2022-12-18T08:56:23;11.38;;;4.95;;
68010;SDS011;54794;48.348;7.878;2022-12-18T08:58:53;11.68;;;4.07;;
68010;SDS011;54794;48.348;7.878;2022-12-18T09:01:21;8.07;;;3.95;;
68010;SDS011;54794;48.348;7.878;2022-12-18T09:03:49;9.32;;;4.68;;
68010;SDS011;54794;48.348;7.878;2022-12-18T09:06:17;10.77;;;4.88;;
68010;SDS011;54794;48.348;7.878;2022-12-18T09:08:48;8.40;;;3.83;;
68010;SDS011;54794;48.348;7.878;2022-12-18T09:11:23;11.70;;;5.20;;
68010;SDS011;54794;48.348;7.878;2022-12-18T09:13:53;9.45;;;4.30;;
68010;SDS011;54794;48.348;7.878;2022-12-18T09:16:22;10.57;;;4.63;;
68010;SDS011;54794;48.348;7.878;2022-12-18T09:18:57;6.93;;;3.58;;
68010;SDS011;54794;48.348;7.878;2022-12-18T09:21:27;6.25;;;3.60;;
68010;SDS011;54794;48.348;7.878;2022-12-18T09:24:02;7.43;;;3.45;;
68010;SDS011;54794;48.348;7.878;2022-12-18T09:26:34;8.18;;;3.88;;
68010;SDS011;54794;48.348;7.878;2022-12-18T09:29:02;8.63;;;3.47;;
68010;SDS011;54794;48.348;7.878;2022-12-18T09:31:29;8.80;;;4.28;;
68010;SDS011;54794;48.348;7.878;2022-12-18T09:33:56;9.60;;;4.15;;
68010;SDS011;54794;48.348;7.878;2022-12-18T09:36:23;6.03;;;3.40;;
68010;SDS011;54794;48.348;7.878;2022-12-18T09:38:50;9.55;;;4.72;;
68010;SDS011;54794;48.348;7.878;2022-12-18T09:49:55;5.85;;;3.00;;
68010;SDS011;54794;48.348;7.878;2022-12-18T09:52:30;8.68;;;3.65;;
68010;SDS011;54794;48.348;7.878;2022-12-18T09:55:11;8.82;;;3.78;;
68010;SDS011;54794;48.348;7.878;2022-12-18T09:57:51;7.03;;;2.95;;
68010;SDS011;54794;48.348;7.878;2022-12-18T10:00:28;6.63;;;3.08;;
68010;SDS011;54794;48.348;7.878;2022-12-18T10:02:59;7.25;;;2.85;;
68010;SDS011;54794;48.348;7.878;2022-12-18T10:18:44;11.02;;;4.57;;
68010;SDS011;54794;48.348;7.878;2022-12-18T10:21:32;7.40;;;3.60;;
68010;SDS011;54794;48.348;7.878;2022-12-18T10:27:10;8.32;;;3.72;;
68010;SDS011;54794;48.348;7.878;2022-12-18T10:29:42;9.75;;;3.97;;
68010;SDS011;54794;48.348;7.878;2022-12-18T10:32:15;9.18;;;4.40;;
68010;SDS011;54794;48.348;7.878;2022-12-18T10:34:52;8.65;;;3.88;;
68010;SDS011;54794;48.348;7.878;2022-12-18T10:37:27;10.55;;;4.22;;
68010;SDS011;54794;48.348;7.878;2022-12-18T10:40:12;9.82;;;3.85;;
68010;SDS011;54794;48.348;7.878;2022-12-18T10:42:59;8.50;;;4.05;;
68010;SDS011;54794;48.348;7.878;2022-12-18T10:45:41;10.32;;;4.15;;
68010;SDS011;54794;48.348;7.878;2022-12-18T10:48:27;7.72;;;3.25;;
68010;SDS011;54794;48.348;7.878;2022-12-18T10:50:56;8.68;;;3.97;;
68010;SDS011;54794;48.348;7.878;2022-12-18T10:53:38;9.10;;;4.07;;
68010;SDS011;54794;48.348;7.878;2022-12-18T10:56:09;8.90;;;3.97;;
68010;SDS011;54794;48.348;7.878;2022-12-18T10:58:38;10.07;;;4.18;;
68010;SDS011;54794;48.348;7.878;2022-12-18T11:06:28;5.88;;;3.10;;
68010;SDS011;54794;48.348;7.878;2022-12-18T11:11:49;10.43;;;4.80;;
68010;SDS011;54794;48.348;7.878;2022-12-18T11:14:32;10.05;;;4.07;;
68010;SDS011;54794;48.348;7.878;2022-12-18T11:19:58;8.48;;;4.03;;
68010;SDS011;54794;48.348;7.878;2022-12-18T11:22:29;7.40;;;3.55;;
68010;SDS011;54794;48.348;7.878;2022-12-18T11:25:00;10.68;;;4.60;;
68010;SDS011;54794;48.348;7.878;2022-12-18T11:27:53;9.95;;;4.13;;
68010;SDS011;54794;48.348;7.878;2022-12-18T11:30:28;10.05;;;4.55;;
68010;SDS011;54794;48.348;7.878;2022-12-18T11:33:18;9.30;;;4.38;;
68010;SDS011;54794;48.348;7.878;2022-12-18T11:35:52;10.23;;;4.55;;
68010;SDS011;54794;48.348;7.878;2022-12-18T11:38:26;10.02;;;4.07;;
68010;SDS011;54794;48.348;7.878;2022-12-18T11:44:09;6.90;;;3.70;;
68010;SDS011;54794;48.348;7.878;2022-12-18T11:46:47;11.45;;;4.40;;
68010;SDS011;54794;48.348;7.878;2022-12-18T11:49:27;7.93;;;3.80;;
68010;SDS011;54794;48.348;7.878;2022-12-18T11:52:04;8.95;;;4.13;;
68010;SDS011;54794;48.348;7.878;2022-12-18T11:54:41;8.65;;;3.95;;
68010;SDS011;54794;48.348;7.878;2022-12-18T12:05:50;9.52;;;3.58;;
68010;SDS011;54794;48.348;7.878;2022-12-18T12:17:22;8.85;;;4.10;;
68010;SDS011;54794;48.348;7.878;2022-12-18T12:25:55;10.25;;;4.05;;
68010;SDS011;54794;48.348;7.878;2022-12-18T12:28:57;7.63;;;3.55;;
68010;SDS011;54794;48.348;7.878;2022-12-18T12:31:54;11.95;;;4.75;;
68010;SDS011;54794;48.348;7.878;2022-12-18T12:37:53;10.93;;;4.63;;
68010;SDS011;54794;48.348;7.878;2022-12-18T12:40:47;10.02;;;3.95;;
68010;SDS011;54794;48.348;7.878;2022-12-18T12:46:17;11.20;;;4.60;;
68010;SDS011;54794;48.348;7.878;2022-12-18T12:48:52;10.00;;;4.30;;
68010;SDS011;54794;48.348;7.878;2022-12-18T12:51:28;8.82;;;4.07;;
68010;SDS011;54794;48.348;7.878;2022-12-18T12:54:00;10.70;;;4.75;;
68010;SDS011;54794;48.348;7.878;2022-12-18T12:56:43;11.52;;;5.03;;
68010;SDS011;54794;48.348;7.878;2022-12-18T13:08:28;12.20;;;4.35;;
68010;SDS011;54794;48.348;7.878;2022-12-18T13:11:02;13.30;;;6.15;;
68010;SDS011;54794;48.348;7.878;2022-12-18T13:14:20;13.48;;;6.10;;
68010;SDS011;54794;48.348;7.878;2022-12-18T13:19:50;12.50;;;4.88;;
68010;SDS011;54794;48.348;7.878;2022-12-18T13:28:12;11.45;;;5.45;;
68010;SDS011;54794;48.348;7.878;2022-12-18T13:30:49;10.15;;;4.80;;
68010;SDS011;54794;48.348;7.878;2022-12-18T13:36:26;12.32;;;5.28;;
68010;SDS011;54794;48.348;7.878;2022-12-18T13:41:49;11.05;;;5.53;;
68010;SDS011;54794;48.348;7.878;2022-12-18T13:44:38;12.43;;;4.90;;
68010;SDS011;54794;48.348;7.878;2022-12-18T13:50:01;13.02;;;5.40;;
68010;SDS011;54794;48.348;7.878;2022-12-18T13:52:59;10.88;;;5.28;;
68010;SDS011;54794;48.348;7.878;2022-12-18T13:55:27;11.82;;;5.38;;
68010;SDS011;54794;48.348;7.878;2022-12-18T13:58:04;11.82;;;5.15;;
68010;SDS011;54794;48.348;7.878;2022-12-18T14:00:33;11.45;;;5.65;;
68010;SDS011;54794;48.348;7.878;2022-12-18T14:03:01;12.73;;;6.10;;
68010;SDS011;54794;48.348;7.878;2022-12-18T14:08:00;11.40;;;5.07;;
68010;SDS011;54794;48.348;7.878;2022-12-18T14:10:34;14.38;;;6.25;;
68010;SDS011;54794;48.348;7.878;2022-12-18T14:13:16;11.70;;;5.20;;
68010;SDS011;54794;48.348;7.878;2022-12-18T14:15:56;13.05;;;5.38;;
68010;SDS011;54794;48.348;7.878;2022-12-18T14:18:31;11.85;;;5.18;;
68010;SDS011;54794;48.348;7.878;2022-12-18T14:21:40;14.93;;;5.80;;
68010;SDS011;54794;48.348;7.878;2022-12-18T14:24:20;11.63;;;4.93;;
68010;SDS011;54794;48.348;7.878;2022-12-18T14:26:48;11.32;;;4.82;;
68010;SDS011;54794;48.348;7.878;2022-12-18T14:29:21;11.93;;;5.18;;
68010;SDS011;54794;48.348;7.878;2022-12-18T14:34:49;14.18;;;5.72;;
68010;SDS011;54794;48.348;7.878;2022-12-18T14:37:25;13.52;;;5.47;;
68010;SDS011;54794;48.348;7.878;2022-12-18T14:39:54;11.10;;;5.15;;
68010;SDS011;54794;48.348;7.878;2022-12-18T14:42:35;13.20;;;4.72;;
68010;SDS011;54794;48.348;7.878;2022-12-18T14:48:08;12.75;;;6.13;;
68010;SDS011;54794;48.348;7.878;2022-12-18T14:51:02;12.30;;;5.40;;
68010;SDS011;54794;48.348;7.878;2022-12-18T14:53:41;13.40;;;5.70;;
68010;SDS011;54794;48.348;7.878;2022-12-18T14:56:21;11.55;;;5.43;;
68010;SDS011;54794;48.348;7.878;2022-12-18T14:58:58;11.43;;;5.25;;
68010;SDS011;54794;48.348;7.878;2022-12-18T15:01:39;12.13;;;5.25;;
68010;SDS011;54794;48.348;7.878;2022-12-18T15:04:36;11.88;;;5.20;;
68010;SDS011;54794;48.348;7.878;2022-12-18T15:07:22;10.45;;;4.95;;
68010;SDS011;54794;48.348;7.878;2022-12-18T15:10:01;13.02;;;4.95;;
68010;SDS011;54794;48.348;7.878;2022-12-18T15:18:05;12.45;;;5.15;;
68010;SDS011;54794;48.348;7.878;2022-12-18T15:21:16;12.63;;;4.72;;
68010;SDS011;54794;48.348;7.878;2022-12-18T15:26:17;11.57;;;4.93;;
68010;SDS011;54794;48.348;7.878;2022-12-18T15:28:55;10.05;;;4.72;;
68010;SDS011;54794;48.348;7.878;2022-12-18T15:31:32;10.23;;;4.80;;
68010;SDS011;54794;48.348;7.878;2022-12-18T15:34:09;10.40;;;4.88;;
68010;SDS011;54794;48.348;7.878;2022-12-18T15:36:39;13.23;;;5.28;;
68010;SDS011;54794;48.348;7.878;2022-12-18T15:39:06;11.38;;;4.65;;
68010;SDS011;54794;48.348;7.878;2022-12-18T15:41:38;12.52;;;5.28;;
68010;SDS011;54794;48.348;7.878;2022-12-18T15:44:21;10.95;;;4.95;;
68010;SDS011;54794;48.348;7.878;2022-12-18T15:46:51;15.30;;;5.85;;
68010;SDS011;54794;48.348;7.878;2022-12-18T15:51:47;11.35;;;5.13;;
68010;SDS011;54794;48.348;7.878;2022-12-18T15:54:24;10.60;;;5.03;;
68010;SDS011;54794;48.348;7.878;2022-12-18T15:57:10;17.02;;;8.02;;
68010;SDS011;54794;48.348;7.878;2022-12-18T15:59:53;12.05;;;6.05;;
68010;SDS011;54794;48.348;7.878;2022-12-18T16:02:24;11.85;;;5.88;;
68010;SDS011;54794;48.348;7.878;2022-12-18T16:04:52;13.50;;;5.82;;
68010;SDS011;54794;48.348;7.878;2022-12-18T16:07:20;14.65;;;5.60;;
68010;SDS011;54794;48.348;7.878;2022-12-18T16:09:50;12.95;;;6.00;;
68010;SDS011;54794;48.348;7.878;2022-12-18T16:12:18;11.50;;;4.88;;
68010;SDS011;54794;48.348;7.878;2022-12-18T16:14:50;12.52;;;5.38;;
68010;SDS011;54794;48.348;7.878;2022-12-18T16:17:17;13.27;;;5.65;;
68010;SDS011;54794;48.348;7.878;2022-12-18T16:19:45;13.95;;;5.95;;
68010;SDS011;54794;48.348;7.878;2022-12-18T16:22:17;12.27;;;5.97;;
68010;SDS011;54794;48.348;7.878;2022-12-18T16:24:48;12.48;;;5.43;;
68010;SDS011;54794;48.348;7.878;2022-12-18T16:27:18;12.48;;;5.93;;
68010;SDS011;54794;48.348;7.878;2022-12-18T16:29:46;13.13;;;5.75;;
68010;SDS011;54794;48.348;7.878;2022-12-18T16:32:14;14.23;;;5.53;;
68010;SDS011;54794;48.348;7.878;2022-12-18T16:34:45;13.38;;;5.53;;
68010;SDS011;54794;48.348;7.878;2022-12-18T16:37:14;13.18;;;6.28;;
68010;SDS011;54794;48.348;7.878;2022-12-18T16:39:41;12.57;;;5.15;;
68010;SDS011;54794;48.348;7.878;2022-12-18T16:44:46;10.55;;;5.00;;
68010;SDS011;54794;48.348;7.878;2022-12-18T16:47:15;12.35;;;6.03;;
68010;SDS011;54794;48.348;7.878;2022-12-18T16:49:43;11.35;;;5.45;;
68010;SDS011;54794;48.348;7.878;2022-12-18T16:52:12;11.02;;;4.95;;
68010;SDS011;54794;48.348;7.878;2022-12-18T16:54:42;13.43;;;5.63;;
68010;SDS011;54794;48.348;7.878;2022-12-18T16:57:13;12.70;;;4.90;;
68010;SDS011;54794;48.348;7.878;2022-12-18T16:59:44;11.95;;;5.22;;
68010;SDS011;54794;48.348;7.878;2022-12-18T17:02:13;13.15;;;5.60;;
68010;SDS011;54794;48.348;7.878;2022-12-18T17:04:49;12.43;;;5.63;;
68010;SDS011;54794;48.348;7.878;2022-12-18T17:07:19;10.35;;;4.85;;
68010;SDS011;54794;48.348;7.878;2022-12-18T17:12:16;12.70;;;5.72;;
68010;SDS011;54794;48.348;7.878;2022-12-18T17:14:44;19.48;;;7.97;;
68010;SDS011;54794;48.348;7.878;2022-12-18T17:17:11;22.17;;;9.93;;
68010;SDS011;54794;48.348;7.878;2022-12-18T17:19:49;19.88;;;8.65;;
68010;SDS011;54794;48.348;7.878;2022-12-18T17:22:18;23.73;;;9.30;;
68010;SDS011;54794;48.348;7.878;2022-12-18T17:24:50;17.02;;;7.95;;
68010;SDS011;54794;48.348;7.878;2022-12-18T17:27:17;18.85;;;8.00;;
68010;SDS011;54794;48.348;7.878;2022-12-18T17:29:45;17.88;;;7.82;;
68010;SDS011;54794;48.348;7.878;2022-12-18T17:32:14;23.33;;;8.80;;
68010;SDS011;54794;48.348;7.878;2022-12-18T17:34:43;15.15;;;7.07;;
68010;SDS011;54794;48.348;7.878;2022-12-18T17:37:11;15.57;;;6.85;;
68010;SDS011;54794;48.348;7.878;2022-12-18T17:39:38;13.20;;;6.97;;
68010;SDS011;54794;48.348;7.878;2022-12-18T17:42:05;13.68;;;5.88;;
68010;SDS011;54794;48.348;7.878;2022-12-18T17:44:35;12.63;;;6.00;;
68010;SDS011;54794;48.348;7.878;2022-12-18T17:47:03;13.55;;;5.55;;
68010;SDS011;54794;48.348;7.878;2022-12-18T17:49:31;16.65;;;6.72;;
68010;SDS011;54794;48.348;7.878;2022-12-18T17:51:58;11.93;;;6.20;;
68010;SDS011;54794;48.348;7.878;2022-12-18T17:54:25;12.05;;;5.65;;
68010;SDS011;54794;48.348;7.878;2022-12-18T17:56:52;11.25;;;5.38;;
68010;SDS011;54794;48.348;7.878;2022-12-18T17:59:19;14.38;;;5.55;;
68010;SDS011;54794;48.348;7.878;2022-12-18T18:01:46;14.75;;;5.65;;